Time;durP1;ratioP1;P1;durP2;ratioP2;P2;SDS_P1;SDS_P2;PMS_P1;PMS_P2;Temp;Humidity;BMP_temperature;BMP_pressure;BME280_temperature;BME280_humidity;BME280_pressure;Samples;Min_cycle;Max_cycle;Signal;HPM_P1;HPM_P2
2022/04/21 00:04:18;;;;;;;6.85;6.35;;;;;;;6.85;93.72;99734.56;10229945;29;20043;-75
2022/04/21 00:09:20;;;;;;;7.25;6.75;;;;;;;6.94;93.13;99734.38;10213750;29;20071;-74
2022/04/21 00:14:21;;;;;;;7.72;7.22;;;;;;;6.95;93.43;99737.84;10231900;29;20074;-75
2022/04/21 00:19:23;;;;;;;13.15;7.05;;;;;;;7.01;93.25;99735.97;10229324;29;20047;-75
2022/04/21 00:24:25;;;;;;;6.93;6.40;;;;;;;6.97;93.24;99739.53;10230609;29;20115;-75
2022/04/21 00:29:27;;;;;;;6.95;6.45;;;;;;;6.95;93.20;99733.50;10231336;29;20044;-75
2022/04/21 00:34:28;;;;;;;8.00;7.40;;;;;;;7.02;93.46;99724.63;10230443;29;20043;-75
2022/04/21 00:39:31;;;;;;;7.32;6.82;;;;;;;7.01;93.47;99725.50;10228751;29;20052;-75
2022/04/21 00:44:34;;;;;;;8.32;7.72;;;;;;;6.87;95.10;99722.34;10210855;29;20051;-75
2022/04/21 00:49:36;;;;;;;8.43;7.82;;;;;;;6.90;95.53;99730.09;10226146;29;20047;-75
2022/04/21 00:54:38;;;;;;;9.05;8.13;;;;;;;6.90;95.61;99714.44;10225574;29;20043;-75
2022/04/21 00:59:42;;;;;;;8.90;8.32;;;;;;;6.88;96.27;99712.75;10226363;29;20048;-76
2022/04/21 01:04:45;;;;;;;9.10;8.40;;;;;;;7.24;93.89;99705.84;10223216;29;20061;-74
2022/04/21 01:09:47;;;;;;;9.10;8.38;;;;;;;6.99;95.32;99715.97;10226709;29;20043;-74
2022/04/21 01:14:49;;;;;;;9.93;9.23;;;;;;;6.96;96.37;99709.09;10225600;29;20514;-75
2022/04/21 01:19:51;;;;;;;12.63;10.07;;;;;;;6.93;96.89;99703.06;10226784;29;20067;-75
2022/04/21 01:24:53;;;;;;;10.32;9.52;;;;;;;7.00;96.68;99697.66;10224860;29;20051;-75
2022/04/21 01:29:54;;;;;;;9.80;9.00;;;;;;;7.47;93.62;99693.06;10225983;29;20040;-75
2022/04/21 01:34:56;;;;;;;10.38;9.38;;;;;;;7.28;94.43;99691.78;10231231;28;20044;-74
2022/04/21 01:45:18;;;;;;;10.57;9.73;;;;;;;7.16;95.77;99677.25;10235042;29;20413;-74
2022/04/21 01:50:20;;;;;;;9.82;9.07;;;;;;;7.03;96.60;99678.44;10237142;29;20068;-76
2022/04/21 01:55:22;;;;;;;11.48;10.68;;;;;;;6.88;98.13;99677.03;10219752;29;20115;-75
2022/04/21 02:00:24;;;;;;;11.98;10.75;;;;;;;6.92;98.90;99672.59;10230289;29;20051;-74
2022/04/21 02:05:26;;;;;;;11.90;10.90;;;;;;;6.83;99.44;99678.91;10229149;29;20086;-73
2022/04/21 02:10:28;;;;;;;11.32;10.48;;;;;;;6.79;100.00;99662.44;10230380;29;20046;-74
2022/04/21 02:15:29;;;;;;;14.23;12.95;;;;;;;6.79;100.00;99658.97;10231114;29;20047;-74
2022/04/21 02:20:31;;;;;;;13.70;12.60;;;;;;;6.76;100.00;99665.09;10237395;29;20120;-75
2022/04/21 02:25:33;;;;;;;14.10;12.73;;;;;;;6.71;100.00;99666.09;10235963;29;20103;-75
2022/04/21 02:30:35;;;;;;;13.63;12.30;;;;;;;6.79;100.00;99667.66;10233910;29;20095;-74
2022/04/21 02:35:37;;;;;;;13.13;11.68;;;;;;;6.91;99.07;99665.66;10232373;29;20048;-76
2022/04/21 02:40:39;;;;;;;13.85;12.38;;;;;;;6.72;100.00;99675.66;10214604;29;20066;-75
2022/04/21 02:45:42;;;;;;;13.43;11.90;;;;;;;6.72;100.00;99671.28;10229131;29;20458;-75
2022/04/21 02:50:43;;;;;;;15.50;14.15;;;;;;;6.65;100.00;99661.03;10228685;29;20036;-75
2022/04/21 03:01:05;;;;;;;18.77;16.67;;;;;;;6.53;100.00;99651.69;10227580;29;20071;-74
2022/04/21 03:06:07;;;;;;;18.25;16.83;;;;;;;6.43;100.00;99655.41;10228052;29;20051;-76
2022/04/21 03:11:08;;;;;;;17.20;15.88;;;;;;;6.57;100.00;99662.03;10225816;29;20052;-75
2022/04/21 03:16:10;;;;;;;17.08;15.52;;;;;;;6.51;100.00;99651.72;10225420;29;20047;-74
2022/04/21 03:26:31;;;;;;;19.77;17.95;;;;;;;6.41;100.00;99649.31;10207797;29;20062;-74
2022/04/21 03:31:33;;;;;;;26.10;20.02;;;;;;;6.54;100.00;99645.56;10223488;29;20549;-75
2022/04/21 03:36:35;;;;;;;38.80;22.52;;;;;;;6.50;100.00;99651.75;10223340;29;20052;-76
2022/04/21 03:41:37;;;;;;;41.60;25.23;;;;;;;6.49;100.00;99650.03;10224145;29;20047;-76
2022/04/21 03:46:39;;;;;;;53.33;25.13;;;;;;;6.44;100.00;99654.50;10221422;29;20044;-75
2022/04/21 03:51:41;;;;;;;51.67;26.60;;;;;;;6.47;100.00;99657.91;10222627;29;20500;-75
2022/04/21 03:56:42;;;;;;;46.67;25.65;;;;;;;6.45;100.00;99664.91;10220896;29;20107;-75
2022/04/21 04:01:44;;;;;;;50.28;28.15;;;;;;;6.36;100.00;99670.31;10221431;29;20087;-75
2022/04/21 04:12:07;;;;;;;62.75;31.42;;;;;;;6.34;100.00;99661.66;10220962;29;20063;-75
2022/04/21 04:17:08;;;;;;;56.38;30.60;;;;;;;6.32;100.00;99666.03;10218087;29;20126;-75
2022/04/21 04:22:11;;;;;;;58.38;33.97;;;;;;;6.31;100.00;99667.78;10218873;29;20055;-75
2022/04/21 04:27:12;;;;;;;70.15;35.72;;;;;;;6.37;100.00;99661.56;10220346;29;20044;-75
2022/04/21 04:32:15;;;;;;;64.78;34.20;;;;;;;6.33;100.00;99667.78;10219529;29;20048;-75
2022/04/21 04:37:16;;;;;;;62.95;35.75;;;;;;;6.43;100.00;99671.06;10203319;29;20062;-76
2022/04/21 04:42:20;;;;;;;45.45;29.00;;;;;;;6.62;100.00;99679.34;10220630;29;20395;-76
2022/04/21 04:47:22;;;;;;;37.65;25.45;;;;;;;6.61;100.00;99670.66;10203456;29;20056;-75
2022/04/21 04:52:23;;;;;;;37.58;23.98;;;;;;;6.62;100.00;99674.13;10217791;29;20553;-74
2022/04/21 04:57:25;;;;;;;56.58;24.55;;;;;;;6.50;100.00;99678.72;10218811;29;20050;-74
2022/04/21 05:02:26;;;;;;;53.58;25.17;;;;;;;6.51;100.00;99679.59;10218300;29;20055;-75
2022/04/21 05:07:28;;;;;;;42.30;23.65;;;;;;;6.41;100.00;99691.97;10216161;29;20040;-74
2022/04/21 05:12:30;;;;;;;36.30;22.65;;;;;;;6.53;100.00;99685.63;10217418;29;20051;-75
2022/04/21 05:17:32;;;;;;;40.97;22.35;;;;;;;6.53;100.00;99689.09;10217908;29;20044;-74
2022/04/21 05:23:05;;;;;;;42.55;22.45;;;;;;;6.56;100.00;99676.00;10219168;29;20494;-74
2022/04/21 05:28:09;;;;;;;42.75;24.25;;;;;;;6.51;100.00;99669.16;10218384;29;20143;-75
2022/04/21 05:33:14;;;;;;;50.25;23.88;;;;;;;6.61;100.00;99673.28;10219862;29;20094;-74
2022/04/21 05:38:16;;;;;;;50.78;22.50;;;;;;;6.96;100.00;99661.19;10220039;29;20047;-75
2022/04/21 05:43:20;;;;;;;38.70;19.83;;;;;;;6.82;100.00;99661.50;10217621;29;20052;-74
2022/04/21 05:48:22;;;;;;;26.95;20.63;;;;;;;6.81;100.00;99665.00;10218253;29;20099;-74
2022/04/21 05:53:26;;;;;;;28.17;19.08;;;;;;;6.80;100.00;99663.28;10218646;29;20059;-74
2022/04/21 05:58:28;;;;;;;32.08;21.55;;;;;;;6.85;100.00;99660.56;10218166;29;20562;-74
2022/04/21 06:03:32;;;;;;;35.05;22.10;;;;;;;6.75;100.00;99662.53;10218429;29;20050;-75
2022/04/21 06:08:34;;;;;;;29.67;22.35;;;;;;;6.90;100.00;99669.16;10218228;29;20048;-74
2022/04/21 06:13:36;;;;;;;23.45;21.00;;;;;;;7.10;100.00;99666.09;10220808;29;20536;-75
2022/04/21 06:18:38;;;;;;;25.52;22.73;;;;;;;7.05;100.00;99667.06;10219055;29;20091;-74
2022/04/21 06:23:39;;;;;;;25.35;22.15;;;;;;;6.92;100.00;99670.84;10226025;29;20056;-74
2022/04/21 06:28:41;;;;;;;25.05;22.70;;;;;;;6.92;100.00;99673.47;10225716;29;20095;-74
2022/04/21 06:33:43;;;;;;;22.90;20.85;;;;;;;7.00;100.00;99660.22;10223619;29;20052;-74
2022/04/21 06:38:45;;;;;;;21.45;19.40;;;;;;;7.03;100.00;99665.38;10209198;29;20059;-74
2022/04/21 06:49:06;;;;;;;22.02;20.27;;;;;;;6.73;100.00;99670.41;10225922;29;20043;-75
2022/04/21 06:54:09;;;;;;;21.77;19.52;;;;;;;6.81;100.00;99667.59;10225133;29;20044;-75
2022/04/21 06:59:11;;;;;;;19.45;17.75;;;;;;;6.82;100.00;99679.78;10225406;29;20040;-76
2022/04/21 07:04:14;;;;;;;18.65;17.10;;;;;;;6.81;100.00;99675.44;10223464;29;20052;-74
2022/04/21 07:09:16;;;;;;;17.98;16.58;;;;;;;6.86;100.00;99684.03;10224010;29;20078;-75
2022/04/21 07:14:18;;;;;;;15.60;14.40;;;;;;;7.11;100.00;99686.97;10225845;29;20138;-75
2022/04/21 07:19:19;;;;;;;16.23;14.75;;;;;;;6.93;100.00;99690.84;10224658;29;20043;-75
2022/04/21 07:24:21;;;;;;;15.23;14.05;;;;;;;7.01;100.00;99682.84;10225149;29;20047;-75
2022/04/21 07:29:22;;;;;;;14.30;13.32;;;;;;;7.10;100.00;99695.69;10225585;29;20112;-76
2022/04/21 07:34:24;;;;;;;13.90;12.85;;;;;;;7.07;100.00;99693.16;10222345;29;20056;-75
2022/04/21 07:39:27;;;;;;;14.20;13.10;;;;;;;6.93;100.00;99703.91;10222019;29;20102;-75
2022/04/21 07:44:28;;;;;;;12.07;11.18;;;;;;;7.22;100.00;99700.66;10220655;29;20146;-74
2022/04/21 07:49:46;;;;;;;11.90;11.10;;;;;;;7.26;100.00;99706.66;10218847;29;20043;-73
2022/04/21 07:54:48;;;;;;;12.57;11.70;;;;;;;7.18;100.00;99713.84;10219400;29;20051;-73
2022/04/21 07:59:49;;;;;;;16.23;15.02;;;;;;;7.10;100.00;99720.97;10217955;29;20103;-73
2022/04/21 08:04:51;;;;;;;15.48;14.00;;;;;;;7.14;100.00;99712.19;10218780;29;20051;-73
2022/04/21 08:09:53;;;;;;;18.27;17.05;;;;;;;7.07;100.00;99714.06;10217934;29;20116;-74
2022/04/21 08:14:54;;;;;;;16.90;15.70;;;;;;;7.14;100.00;99714.78;10217407;29;20075;-73
2022/04/21 08:19:56;;;;;;;18.60;17.17;;;;;;;7.24;100.00;99721.53;10216969;29;20050;-73
2022/04/21 08:35:58;;;;;;;21.67;20.17;;;;;;;7.22;100.00;99736.41;10216774;29;20053;-71
2022/04/21 08:41:07;;;;;;;17.88;16.58;;;;;;;7.43;100.00;99728.03;10215043;29;20047;-73
2022/04/21 08:46:16;;;;;;;17.60;16.40;;;;;;;7.37;100.00;99733.41;10215751;29;20520;-72
2022/04/21 08:51:20;;;;;;;19.75;18.15;;;;;;;7.31;100.00;99736.19;10215756;29;20044;-71
2022/04/21 08:56:22;;;;;;;15.63;14.63;;;;;;;7.52;100.00;99743.50;10216692;29;20545;-73
2022/04/21 09:01:25;;;;;;;17.83;16.17;;;;;;;7.47;100.00;99742.75;10216620;29;20052;-72
2022/04/21 09:06:29;;;;;;;17.45;16.30;;;;;;;7.49;100.00;99740.97;10215943;29;20498;-72
2022/04/21 09:11:31;;;;;;;18.23;17.02;;;;;;;7.42;100.00;99749.00;10216076;29;20036;-73
2022/04/21 09:16:34;;;;;;;17.27;16.02;;;;;;;7.46;100.00;99748.03;10215905;29;20115;-72
2022/04/21 09:21:37;;;;;;;16.75;15.55;;;;;;;7.58;100.00;99745.97;10214442;29;20043;-73
2022/04/21 09:26:44;;;;;;;18.20;16.70;;;;;;;7.52;100.00;99745.25;10215918;29;20106;-73
2022/04/21 09:31:46;;;;;;;;;;;;;;;7.46;100.00;99734.94;10214268;29;20446;-73
2022/04/21 09:36:47;;;;;;;16.30;15.00;;;;;;;7.71;100.00;99741.31;10215080;29;20300;-73
2022/04/21 09:41:53;;;;;;;16.33;15.23;;;;;;;7.93;100.00;99746.88;10216108;29;20520;-72
2022/04/21 09:46:58;;;;;;;15.82;14.73;;;;;;;8.02;100.00;99740.53;10214060;29;20066;-73
2022/04/21 09:52:00;;;;;;;14.45;13.45;;;;;;;7.95;100.00;99739.81;10214398;29;20106;-73
2022/04/21 09:57:03;;;;;;;14.80;13.60;;;;;;;8.06;100.00;99736.94;10220045;29;20450;-72
2022/04/21 10:02:04;;;;;;;13.70;12.80;;;;;;;8.16;100.00;99735.78;10223043;29;20043;-72
2022/04/21 10:07:06;;;;;;;12.95;12.05;;;;;;;8.16;99.63;99738.41;10222784;29;20452;-72
2022/04/21 10:12:08;;;;;;;13.63;12.55;;;;;;;8.15;100.00;99733.22;10222286;29;20048;-72
2022/04/21 10:17:10;;;;;;;11.60;10.80;;;;;;;8.27;99.93;99735.50;10221413;29;20533;-72
2022/04/21 10:22:14;;;;;;;11.18;10.35;;;;;;;8.23;100.00;99737.31;10221092;29;20387;-72
2022/04/21 10:27:35;;;;;;;12.35;11.45;;;;;;;8.20;100.00;99737.44;10221505;29;20102;-73
2022/04/21 10:32:47;;;;;;;12.52;11.23;;;;;;;8.34;98.65;99743.16;10219961;29;20055;-72
2022/04/21 10:38:14;;;;;;;12.38;11.43;;;;;;;8.23;98.44;99739.09;10220610;29;20063;-73
2022/04/21 10:43:17;;;;;;;10.75;9.95;;;;;;;8.34;98.24;99732.66;10220744;29;20056;-73
2022/04/21 10:48:38;;;;;;;11.70;10.90;;;;;;;8.33;99.76;99730.97;10221614;29;20044;-72
2022/04/21 10:59:19;;;;;;;14.75;13.55;;;;;;;8.21;100.00;99727.81;10220408;29;20076;-73
2022/04/21 11:04:22;;;;;;;13.88;12.68;;;;;;;8.19;100.00;99733.09;10220459;29;20094;-72
2022/04/21 11:09:48;;;;;;;12.70;11.80;;;;;;;8.51;98.67;99736.63;10218734;29;20043;-73
2022/04/21 11:15:58;;;;;;;12.07;11.07;;;;;;;8.42;100.00;99740.34;10219996;29;20051;-74
2022/04/21 11:21:21;;;;;;;11.98;10.98;;;;;;;8.75;97.63;99735.91;10202486;29;20562;-74
2022/04/21 11:26:28;;;;;;;11.80;10.80;;;;;;;8.66;98.08;99740.56;10219679;29;20047;-73
2022/04/21 11:31:30;;;;;;;13.05;12.07;;;;;;;8.63;98.88;99735.41;10219381;29;20058;-73
2022/04/21 11:36:37;;;;;;;11.52;10.63;;;;;;;8.58;97.75;99743.38;10218525;29;20074;-72
2022/04/21 11:41:44;;;;;;;13.18;12.27;;;;;;;8.53;99.00;99742.66;10218485;29;20066;-74
2022/04/21 11:46:46;;;;;;;;;;;;;;;8.44;100.00;99737.69;10219155;29;20058;-73
2022/04/21 11:51:52;;;;;;;14.73;13.27;;;;;;;8.50;99.78;99740.13;10219837;29;20269;-74
2022/04/21 11:56:54;;;;;;;13.73;12.77;;;;;;;8.37;99.72;99733.50;10219597;29;20044;-74
2022/04/21 12:07:17;;;;;;;14.27;13.27;;;;;;;8.64;99.76;99731.91;10218494;29;20083;-73
2022/04/21 12:12:21;;;;;;;14.27;13.27;;;;;;;8.82;99.66;99726.97;10219075;29;20048;-75
2022/04/21 12:17:23;;;;;;;13.23;12.32;;;;;;;9.34;94.04;99735.00;10217746;29;20051;-74
2022/04/21 12:22:32;;;;;;;11.35;10.55;;;;;;;9.36;94.57;99722.72;10217708;29;20067;-74
2022/04/21 12:27:36;;;;;;;10.93;10.02;;;;;;;9.44;91.73;99719.84;10215606;29;20111;-74
2022/04/21 12:32:49;;;;;;;9.15;8.55;;;;;;;9.67;89.15;99713.84;10218211;29;20044;-74
2022/04/21 12:38:50;;;;;;;11.73;10.82;;;;;;;9.26;95.01;99716.03;10218556;29;20067;-72
2022/04/21 12:43:23;;;;;;;9.90;9.10;;;;;;;9.47;91.51;99715.34;10216806;29;20099;-73
2022/04/21 12:48:26;;;;;;;10.55;9.82;;;;;;;9.32;92.77;99700.94;10216778;29;20051;-73
2022/04/21 12:53:29;;;;;;;9.63;8.80;;;;;;;9.59;90.76;99703.59;10220881;29;20043;-73
2022/04/21 12:58:31;;;;;;;11.40;10.60;;;;;;;9.35;92.50;99706.13;10255024;29;20039;-73
2022/04/21 13:03:33;;;;;;;10.55;9.80;;;;;;;9.35;90.67;99703.50;10255206;29;20529;-73
2022/04/21 13:08:34;;;;;;;9.73;8.88;;;;;;;9.60;88.52;99700.91;10255114;29;20043;-74
2022/04/21 13:13:36;;;;;;;9.35;8.65;;;;;;;9.67;87.46;99705.97;10254792;29;20051;-74
2022/04/21 13:18:38;;;;;;;9.00;8.30;;;;;;;9.72;88.38;99702.28;10254499;29;20047;-75
2022/04/21 13:23:39;;;;;;;9.13;8.32;;;;;;;9.92;86.07;99709.50;10254017;29;20053;-73
2022/04/21 13:28:41;;;;;;;9.57;8.77;;;;;;;9.81;86.16;99707.22;10253496;29;20046;-74
2022/04/21 13:33:42;;;;;;;8.70;8.00;;;;;;;9.59;87.19;99700.97;10254289;29;20110;-72
2022/04/21 13:38:44;;;;;;;11.27;7.65;;;;;;;9.76;85.70;99697.78;10237312;29;20048;-73
2022/04/21 13:43:46;;;;;;;8.82;8.23;;;;;;;9.53;87.61;99706.44;10254494;29;20058;-73
2022/04/21 13:49:09;;;;;;;7.78;7.18;;;;;;;9.75;85.80;99702.19;10234172;23;20122;-73
2022/04/21 13:54:10;;;;;;;10.00;9.30;;;;;;;9.57;86.61;99702.81;10214551;29;20047;-73
2022/04/21 13:59:13;;;;;;;10.02;9.02;;;;;;;9.68;87.43;99703.28;10196583;29;20091;-72
2022/04/21 14:04:14;;;;;;;10.68;9.70;;;;;;;9.95;86.29;99708.50;10213973;29;20043;-72
2022/04/21 14:09:16;;;;;;;9.68;8.90;;;;;;;9.86;85.65;99704.44;10214020;29;20051;-73
2022/04/21 14:14:18;;;;;;;9.48;8.57;;;;;;;9.63;87.13;99702.59;10214783;29;20043;-72
2022/04/21 14:19:19;;;;;;;10.85;10.05;;;;;;;9.49;87.61;99703.03;10196365;29;20433;-72
2022/04/21 14:24:21;;;;;;;8.70;8.10;;;;;;;9.63;87.27;99705.22;10196785;29;20043;-73
2022/04/21 14:29:23;;;;;;;9.50;8.80;;;;;;;9.47;88.35;99704.84;10213629;29;20103;-72
2022/04/21 14:34:25;;;;;;;10.50;9.70;;;;;;;9.53;88.82;99699.41;10213250;29;20573;-71
2022/04/21 14:44:47;;;;;;;10.30;9.45;;;;;;;9.42;88.16;99703.28;10223821;29;20107;-72
2022/04/21 14:49:48;;;;;;;11.13;10.13;;;;;;;9.49;88.97;99695.16;10234058;29;20044;-72
2022/04/21 14:54:50;;;;;;;11.55;10.15;;;;;;;9.60;88.26;99694.81;10194170;29;20107;-73
2022/04/21 14:59:51;;;;;;;10.90;10.00;;;;;;;9.31;89.87;99690.53;10191901;29;20044;-72
2022/04/21 15:04:53;;;;;;;11.48;10.48;;;;;;;9.73;88.82;99690.84;10220173;29;20047;-72
2022/04/21 15:09:55;;;;;;;11.27;10.40;;;;;;;9.74;88.08;99694.34;10219692;29;20039;-72
2022/04/21 15:14:56;;;;;;;11.90;10.90;;;;;;;9.67;88.37;99703.34;10202281;29;20059;-72
2022/04/21 15:19:58;;;;;;;14.38;10.40;;;;;;;9.72;88.29;99696.16;10217898;29;20044;-72
2022/04/21 15:24:59;;;;;;;11.88;10.88;;;;;;;9.54;89.95;99701.13;10218217;29;20513;-72
2022/04/21 15:30:02;;;;;;;12.15;11.25;;;;;;;9.48;89.71;99698.72;10217795;29;20044;-72
2022/04/21 15:35:04;;;;;;;13.75;12.45;;;;;;;9.65;89.40;99698.16;10216582;29;20059;-71
2022/04/21 15:40:07;;;;;;;12.85;11.73;;;;;;;9.60;89.68;99693.03;10249714;29;20047;-72
2022/04/21 15:45:09;;;;;;;12.02;11.10;;;;;;;9.77;88.24;99691.63;10241688;29;20052;-71
2022/04/21 15:50:11;;;;;;;12.20;11.20;;;;;;;9.60;89.98;99697.44;10225638;29;20039;-72
2022/04/21 16:00:32;;;;;;;12.35;11.30;;;;;;;9.67;89.23;99695.47;10214800;29;20044;-72
2022/04/21 16:05:34;;;;;;;11.48;10.57;;;;;;;9.63;90.19;99685.97;10193786;29;20107;-72
2022/04/21 16:10:36;;;;;;;10.98;10.07;;;;;;;9.59;90.02;99690.47;10216295;29;20044;-72
2022/04/21 16:15:38;;;;;;;11.35;10.45;;;;;;;9.65;88.61;99690.28;10199220;29;20502;-71
2022/04/21 16:20:39;;;;;;;11.38;10.48;;;;;;;9.52;89.93;99697.72;10216256;29;20100;-71
2022/04/21 16:25:42;;;;;;;10.82;9.93;;;;;;;9.69;89.79;99688.38;10216066;29;20083;-72
2022/04/21 16:30:44;;;;;;;9.82;9.13;;;;;;;9.57;91.10;99687.06;10216101;29;20103;-72
2022/04/21 16:35:46;;;;;;;9.18;8.48;;;;;;;9.48;91.55;99684.75;10183584;29;20106;-73
2022/04/21 16:40:48;;;;;;;7.82;7.13;;;;;;;9.55;90.44;99688.84;10215177;29;20107;-72
2022/04/21 16:45:50;;;;;;;8.35;7.63;;;;;;;9.60;90.60;99687.78;10214860;29;20048;-72
2022/04/21 16:50:52;;;;;;;8.23;7.63;;;;;;;9.52;91.56;99692.47;10215540;29;20035;-72
2022/04/21 16:55:54;;;;;;;8.05;7.45;;;;;;;9.27;92.68;99689.75;10182403;29;20051;-73
2022/04/21 17:06:16;;;;;;;9.70;9.00;;;;;;;9.09;96.17;99688.56;10157895;29;20103;-73
2022/04/21 17:11:18;;;;;;;8.07;7.47;;;;;;;9.43;93.99;99689.25;10176105;29;20048;-72
2022/04/21 17:16:19;;;;;;;7.95;7.40;;;;;;;9.29;94.54;99692.31;10175805;29;20525;-73
2022/04/21 17:21:21;;;;;;;10.10;9.45;;;;;;;9.30;95.52;99691.44;10175178;29;20051;-72
2022/04/21 17:26:22;;;;;;;11.15;10.35;;;;;;;9.17;97.00;99700.59;10176031;29;20443;-73
2022/04/21 17:31:26;;;;;;;13.88;12.88;;;;;;;8.96;98.83;99699.50;10175257;29;20044;-72
2022/04/21 17:36:29;;;;;;;13.15;12.15;;;;;;;9.18;98.95;99697.06;10175192;29;20063;-74
2022/04/21 17:41:30;;;;;;;14.13;13.13;;;;;;;8.93;100.00;99694.34;10175215;29;20052;-74
2022/04/21 17:46:32;;;;;;;16.92;15.63;;;;;;;8.83;100.00;99694.63;10174816;29;20051;-74
2022/04/21 17:51:34;;;;;;;16.15;14.95;;;;;;;8.76;100.00;99703.53;10175769;29;20410;-74
2022/04/21 17:56:36;;;;;;;15.88;14.73;;;;;;;8.71;100.00;99694.13;10172990;29;20404;-72
2022/04/21 18:01:38;;;;;;;13.57;12.68;;;;;;;8.70;100.00;99689.78;10174573;29;20048;-72
2022/04/21 18:06:39;;;;;;;15.98;14.77;;;;;;;8.73;100.00;99700.19;10174054;29;20048;-73
2022/04/21 18:11:41;;;;;;;16.70;15.25;;;;;;;8.76;100.00;99685.19;10174644;29;20048;-73
2022/04/21 18:16:43;;;;;;;16.33;15.13;;;;;;;9.07;100.00;99694.75;10177523;29;20100;-73
2022/04/21 18:21:44;;;;;;;16.35;15.15;;;;;;;8.87;100.00;99684.03;10165442;29;20516;-74
2022/04/21 18:26:48;;;;;;;18.38;17.08;;;;;;;8.76;100.00;99687.81;10183372;29;20048;-74
2022/04/21 18:31:49;;;;;;;18.67;17.27;;;;;;;8.75;100.00;99693.97;10191028;29;20044;-73
2022/04/21 18:36:51;;;;;;;18.75;17.35;;;;;;;8.75;100.00;99690.50;10188682;29;20122;-72
2022/04/21 18:41:53;;;;;;;20.10;18.50;;;;;;;8.84;100.00;99682.34;10204751;29;20067;-73
2022/04/21 18:46:54;;;;;;;22.08;20.23;;;;;;;8.79;100.00;99679.03;10213212;29;20044;-74
2022/04/21 18:51:56;;;;;;;22.27;20.58;;;;;;;8.72;100.00;99681.00;10184588;29;20044;-74
2022/04/21 18:56:59;;;;;;;22.83;21.02;;;;;;;8.71;100.00;99675.78;10164515;29;20083;-73
2022/04/21 19:02:01;;;;;;;22.52;20.83;;;;;;;8.76;100.00;99674.72;10178939;29;20139;-73
2022/04/21 19:07:04;;;;;;;23.35;21.38;;;;;;;8.71;100.00;99678.41;10180822;29;20508;-73
2022/04/21 19:12:07;;;;;;;24.85;22.10;;;;;;;8.88;100.00;99686.59;10179310;29;20040;-73
2022/04/21 19:17:09;;;;;;;24.02;22.10;;;;;;;9.05;100.00;99671.22;10185774;29;20058;-74
2022/04/21 19:22:10;;;;;;;25.33;23.10;;;;;;;8.84;99.83;99675.34;10165208;29;20157;-74
2022/04/21 19:27:19;;;;;;;24.00;22.10;;;;;;;8.64;100.00;99675.13;10179400;29;20048;-73
2022/04/21 19:32:22;;;;;;;24.85;22.88;;;;;;;8.59;100.00;99674.41;10172411;29;20044;-72
2022/04/21 19:37:24;;;;;;;32.13;24.15;;;;;;;8.76;100.00;99666.00;10167245;29;20051;-73
2022/04/21 19:42:26;;;;;;;23.70;21.80;;;;;;;8.69;100.00;99664.50;10180940;29;20055;-73
2022/04/21 19:47:30;;;;;;;24.00;21.88;;;;;;;8.78;100.00;99666.84;10198707;23;20048;-82
2022/04/21 19:52:31;;;;;;;24.65;22.50;;;;;;;8.72;100.00;99664.38;10236141;29;20091;-82
2022/04/21 19:57:33;;;;;;;25.38;23.25;;;;;;;8.93;99.45;99655.00;10233756;29;20114;-83
2022/04/21 20:02:50;;;;;;;25.88;23.17;;;;;;;8.81;99.92;99651.88;10235037;29;20123;-81
2022/04/21 20:13:12;;;;;;;25.77;23.67;;;;;;;8.69;100.00;99646.16;10233282;29;20056;-82
2022/04/21 20:18:18;;;;;;;27.70;25.30;;;;;;;8.57;100.00;99645.59;10235864;29;20050;-81
2022/04/21 20:23:20;;;;;;;25.23;23.10;;;;;;;8.72;100.00;99636.44;10218042;29;20059;-82
2022/04/21 20:28:23;;;;;;;26.00;23.92;;;;;;;8.55;100.00;99631.69;10234332;29;20421;-81
2022/04/21 20:33:24;;;;;;;25.20;23.20;;;;;;;8.54;100.00;99630.00;10236570;29;20047;-82
2022/04/21 20:38:26;;;;;;;27.02;24.92;;;;;;;8.56;100.00;99629.94;10236152;29;20110;-82
2022/04/21 20:43:28;;;;;;;24.73;22.73;;;;;;;8.63;100.00;99622.72;10246803;29;20064;-81
2022/04/21 20:48:29;;;;;;;23.63;21.83;;;;;;;8.67;99.57;99621.75;10236575;29;20052;-80
2022/04/21 20:53:31;;;;;;;24.92;22.88;;;;;;;8.54;99.76;99622.13;10251478;29;20055;-80
2022/04/21 20:58:34;;;;;;;22.60;20.80;;;;;;;8.62;100.00;99616.63;10250534;29;20107;-79
2022/04/21 21:03:36;;;;;;;22.73;20.98;;;;;;;8.58;99.33;99621.09;10245038;29;20182;-82
2022/04/21 21:08:37;;;;;;;21.60;20.02;;;;;;;8.93;96.96;99623.56;10235498;29;20048;-81
2022/04/21 21:13:38;;;;;;;21.45;19.95;;;;;;;8.72;98.11;99632.94;10233797;29;20514;-80
2022/04/21 21:18:40;;;;;;;21.35;19.75;;;;;;;8.76;98.01;99624.94;10232794;29;20055;-81
2022/04/21 21:23:42;;;;;;;23.08;20.92;;;;;;;8.51;99.15;99618.75;10231399;29;20091;-81
2022/04/21 21:28:43;;;;;;;21.90;20.20;;;;;;;8.52;100.00;99623.06;10236193;29;20066;-81
2022/04/21 21:33:45;;;;;;;23.70;21.83;;;;;;;8.43;100.00;99626.81;10219589;29;20461;-82
2022/04/21 21:38:46;;;;;;;21.63;20.02;;;;;;;8.49;100.00;99621.38;10218653;29;20075;-82
2022/04/21 21:43:50;;;;;;;21.15;19.42;;;;;;;8.32;100.00;99623.63;10236229;29;20410;-82
2022/04/21 21:54:12;;;;;;;22.15;20.48;;;;;;;8.24;100.00;99621.25;10246057;29;20039;-81
2022/04/21 21:59:13;;;;;;;24.83;22.80;;;;;;;8.30;100.00;99618.44;10243830;29;20099;-82
2022/04/21 22:04:15;;;;;;;22.35;20.65;;;;;;;8.24;100.00;99605.53;10242504;29;20048;-82
2022/04/21 22:09:17;;;;;;;24.67;22.75;;;;;;;8.25;100.00;99611.63;10243475;29;20051;-81
2022/04/21 22:14:19;;;;;;;24.15;22.40;;;;;;;8.33;100.00;99607.88;10245736;29;20446;-82
2022/04/21 22:19:27;;;;;;;21.85;20.25;;;;;;;8.39;100.00;99598.16;10238650;29;20411;-81
2022/04/21 22:24:28;;;;;;;23.35;21.60;;;;;;;8.26;100.00;99598.47;10235725;29;20055;-82
2022/04/21 22:29:30;;;;;;;25.80;23.58;;;;;;;8.21;100.00;99602.13;10243080;29;20069;-80
2022/04/21 22:34:47;;;;;;;;;;;;;;;8.23;100.00;99593.31;10259055;29;20062;-82
2022/04/21 22:39:48;;;;;;;23.20;21.40;;;;;;;8.21;100.00;99589.03;10240175;29;19930;-81
2022/04/21 22:44:51;;;;;;;22.42;20.83;;;;;;;8.15;100.00;99574.38;10220733;29;20052;-80
2022/04/21 22:49:53;;;;;;;23.65;21.75;;;;;;;8.08;100.00;99571.06;10236302;29;20074;-80
2022/04/21 22:54:54;;;;;;;24.02;22.05;;;;;;;8.14;100.00;99563.94;10219541;29;20044;-81
2022/04/21 22:59:56;;;;;;;27.05;24.77;;;;;;;8.15;100.00;99563.06;10235675;29;20071;-81
2022/04/21 23:04:57;;;;;;;27.75;25.45;;;;;;;8.31;100.00;99557.28;10233429;29;20055;-81
2022/04/21 23:15:22;;;;;;;26.02;24.05;;;;;;;8.27;100.00;99542.56;10238721;29;20561;-80
2022/04/21 23:20:24;;;;;;;27.70;25.40;;;;;;;8.17;100.00;99541.16;10240298;29;20039;-81
2022/04/21 23:25:25;;;;;;;26.77;24.63;;;;;;;8.38;100.00;99539.69;10238280;29;20047;-81
2022/04/21 23:30:27;;;;;;;25.92;23.65;;;;;;;8.47;100.00;99518.44;10240792;29;20055;-81
2022/04/21 23:35:29;;;;;;;25.17;23.27;;;;;;;8.27;100.00;99519.00;10239944;29;20048;-81
2022/04/21 23:40:30;;;;;;;26.48;24.23;;;;;;;8.29;100.00;99508.50;10240252;29;20047;-83
2022/04/21 23:45:32;;;;;;;25.35;23.33;;;;;;;8.29;100.00;99505.88;10237337;29;20110;-82
2022/04/21 23:50:34;;;;;;;26.67;24.35;;;;;;;8.11;100.00;99506.44;10237000;29;20128;-82
2022/04/21 23:55:35;;;;;;;27.42;25.17;;;;;;;8.01;100.00;99506.72;10237460;29;20047;-81
